createdAt,value
2019-05-28T00:00:03.882Z,23.35
2019-05-28T00:02:37.217Z,23.38
2019-05-28T00:05:09.246Z,23.59
2019-05-28T00:07:41.419Z,24.69
2019-05-28T00:10:13.714Z,24.95
2019-05-28T00:12:45.762Z,24.97
2019-05-28T00:15:17.835Z,24.96
2019-05-28T00:17:50.211Z,24.93
2019-05-28T00:20:22.482Z,24.93
2019-05-28T00:22:54.658Z,24.93
2019-05-28T00:25:29.295Z,24.91
2019-05-28T00:28:00.634Z,24.86
2019-05-28T00:30:33.007Z,24.78
2019-05-28T00:33:05.351Z,24.72
2019-05-28T00:35:37.608Z,24.77
2019-05-28T00:38:09.936Z,24.65
2019-05-28T00:40:42.957Z,24.53
2019-05-28T00:43:14.990Z,24.46
2019-05-28T00:45:47.057Z,24.46
2019-05-28T00:48:19.130Z,24.66
2019-05-28T00:50:51.197Z,24.68
2019-05-28T00:53:23.571Z,23.49
2019-05-28T00:55:56.155Z,23.02
2019-05-28T00:58:28.324Z,22.84
2019-05-28T01:01:00.394Z,22.68
2019-05-28T01:03:32.768Z,22.66
2019-05-28T01:06:05.347Z,22.64
2019-05-28T01:08:37.315Z,22.64
2019-05-28T01:11:09.793Z,22.67
2019-05-28T01:13:42.380Z,22.66
2019-05-28T01:16:14.650Z,22.68
2019-05-28T01:18:46.826Z,22.70
2019-05-28T01:21:18.896Z,22.67
2019-05-28T01:23:50.783Z,22.59
2019-05-28T01:26:23.447Z,22.59
2019-05-28T01:28:56.124Z,22.61
2019-05-28T01:31:28.611Z,22.59
2019-05-28T01:34:00.985Z,22.58
2019-05-28T01:36:33.153Z,22.52
2019-05-28T01:39:07.175Z,22.47
2019-05-28T01:41:39.238Z,22.44
2019-05-28T01:44:11.511Z,22.39
2019-05-28T01:46:44.210Z,22.37
2019-05-28T01:49:16.806Z,22.35
2019-05-28T01:51:49.061Z,22.32
2019-05-28T01:54:21.323Z,22.30
2019-05-28T01:56:53.707Z,22.36
2019-05-28T01:59:25.971Z,22.34
2019-05-28T02:01:58.452Z,22.32
2019-05-28T02:04:30.520Z,22.32
2019-05-28T02:07:03.009Z,22.37
2019-05-28T02:09:35.477Z,22.35
2019-05-28T02:12:07.854Z,22.39
2019-05-28T02:14:40.333Z,22.42
2019-05-28T02:17:12.742Z,22.44
2019-05-28T02:19:45.186Z,22.45
2019-05-28T02:22:17.463Z,22.46
2019-05-28T02:24:49.631Z,22.37
2019-05-28T02:27:22.210Z,22.35
2019-05-28T02:29:54.689Z,22.35
2019-05-28T02:32:26.759Z,22.40
2019-05-28T02:34:59.239Z,22.50
2019-05-28T02:37:32.129Z,22.55
2019-05-28T02:40:06.060Z,22.52
2019-05-28T02:42:38.221Z,22.55
2019-05-28T02:45:10.589Z,22.54
2019-05-28T02:47:42.991Z,22.58
2019-05-28T02:50:15.239Z,22.62
2019-05-28T02:52:47.719Z,22.61
2019-05-28T02:55:19.784Z,22.61
2019-05-28T02:57:52.567Z,22.68
2019-05-28T03:00:25.052Z,22.71
2019-05-28T03:02:57.317Z,22.70
2019-05-28T03:05:29.899Z,22.75
2019-05-28T03:08:02.477Z,22.75
2019-05-28T03:10:59.759Z,22.78
2019-05-28T03:13:10.612Z,22.84
2019-05-28T03:15:45.463Z,22.96
2019-05-28T03:18:17.519Z,23.07
2019-05-28T03:20:50.094Z,23.20
2019-05-28T03:23:22.575Z,23.31
2019-05-28T03:25:54.945Z,23.33
2019-05-28T03:28:27.122Z,23.43
2019-05-28T03:30:59.500Z,23.53
2019-05-28T03:33:32.081Z,23.64
2019-05-28T03:36:04.347Z,23.72
2019-05-28T03:38:36.522Z,23.87
2019-05-28T03:41:08.798Z,24.00
2019-05-28T03:43:41.078Z,24.11
2019-05-28T03:46:13.752Z,24.22
2019-05-28T03:48:45.928Z,24.34
2019-05-28T03:51:18.299Z,24.44
2019-05-28T03:53:50.606Z,24.52
2019-05-28T03:56:23.670Z,24.60
2019-05-28T03:58:55.858Z,24.68
2019-05-28T04:01:28.526Z,24.78
2019-05-28T04:04:00.794Z,24.90
2019-05-28T04:06:32.960Z,24.97
2019-05-28T04:09:07.804Z,25.01
2019-05-28T04:11:44.755Z,25.00
2019-05-28T04:14:14.193Z,25.07
2019-05-28T04:16:46.882Z,25.12
2019-05-28T04:19:18.945Z,25.15
2019-05-28T04:21:51.438Z,25.23
2019-05-28T04:24:24.009Z,25.31
2019-05-28T04:26:56.306Z,25.42
2019-05-28T04:29:28.553Z,25.57
2019-05-28T04:32:00.929Z,25.76
2019-05-28T04:34:33.304Z,25.98
2019-05-28T04:37:05.823Z,26.19
2019-05-28T04:39:38.361Z,26.44
2019-05-28T04:42:10.738Z,26.68
2019-05-28T04:44:43.218Z,26.84
2019-05-28T04:47:15.386Z,27.02
2019-05-28T04:49:47.863Z,27.22
2019-05-28T04:52:20.135Z,27.43
2019-05-28T04:54:52.408Z,27.57
2019-05-28T04:57:24.578Z,27.70
2019-05-28T04:59:57.059Z,27.82
2019-05-28T05:02:29.420Z,27.92
2019-05-28T05:05:02.121Z,28.08
2019-05-28T05:07:35.629Z,28.14
2019-05-28T05:10:08.430Z,28.21
2019-05-28T05:12:40.377Z,28.20
2019-05-28T05:15:12.753Z,28.22
2019-05-28T05:17:45.231Z,28.20
2019-05-28T05:20:17.408Z,28.21
2019-05-28T05:22:49.879Z,28.22
2019-05-28T05:25:21.749Z,28.23
2019-05-28T05:27:53.919Z,28.25
2019-05-28T05:30:26.216Z,28.35
2019-05-28T05:33:16.316Z,28.47
2019-05-28T05:35:32.506Z,28.63
2019-05-28T05:38:04.861Z,28.78
2019-05-28T05:40:37.138Z,28.93
2019-05-28T05:43:09.411Z,29.03
2019-05-28T05:45:41.784Z,29.04
2019-05-28T05:48:14.060Z,29.06
2019-05-28T05:50:46.640Z,29.16
2019-05-28T05:53:19.114Z,29.20
2019-05-28T05:55:50.970Z,29.33
2019-05-28T05:58:23.252Z,29.46
2019-05-28T06:00:55.424Z,29.47
2019-05-28T06:03:39.770Z,29.51
2019-05-28T06:06:01.821Z,29.65
2019-05-28T06:08:36.991Z,29.74
2019-05-28T06:11:07.977Z,29.86
2019-05-28T06:13:40.707Z,29.92
2019-05-28T06:16:12.908Z,30.05
2019-05-28T06:18:48.068Z,30.08
2019-05-28T06:21:21.489Z,30.17
2019-05-28T06:23:53.559Z,30.31
2019-05-28T06:26:25.826Z,30.38
2019-05-28T06:28:58.105Z,30.47
2019-05-28T06:31:30.081Z,30.50
2019-05-28T06:34:02.259Z,30.51
2019-05-28T06:36:35.023Z,30.48
2019-05-28T06:39:08.621Z,30.58
2019-05-28T06:41:40.489Z,30.69
2019-05-28T06:44:12.550Z,30.77
2019-05-28T06:46:44.722Z,30.92
2019-05-28T06:49:16.703Z,31.08
2019-05-28T06:51:49.068Z,31.21
2019-05-28T06:54:21.340Z,31.29
2019-05-28T06:56:53.507Z,31.34
2019-05-28T06:59:25.676Z,31.44
2019-05-28T07:01:58.199Z,31.60
2019-05-28T07:04:32.974Z,31.72
2019-05-28T07:43:44.051Z,33.13
2019-05-28T07:46:16.518Z,32.91
2019-05-28T07:48:48.473Z,32.92
2019-05-28T07:51:20.645Z,32.97
2019-05-28T07:53:53.021Z,32.99
2019-05-28T07:56:25.303Z,33.17
2019-05-28T07:58:57.571Z,33.19
2019-05-28T08:01:30.048Z,33.25
2019-05-28T08:04:02.119Z,33.24
2019-05-28T08:06:34.074Z,33.36
2019-05-28T08:09:07.862Z,33.43
2019-05-28T08:11:39.678Z,33.15
2019-05-28T08:14:11.940Z,32.89
2019-05-28T08:16:52.182Z,32.89
2019-05-28T08:19:18.214Z,33.00
2019-05-28T08:21:50.219Z,33.24
2019-05-28T08:24:23.128Z,33.38
2019-05-28T08:26:55.187Z,33.52
2019-05-28T08:29:27.397Z,33.68
2019-05-28T08:32:00.295Z,33.80
2019-05-28T08:34:32.251Z,33.87
2019-05-28T08:37:06.555Z,33.95
2019-05-28T08:39:38.232Z,34.12
2019-05-28T08:42:10.291Z,34.21
2019-05-28T08:44:44.105Z,34.26
2019-05-28T08:47:16.066Z,34.37
2019-05-28T08:49:48.242Z,34.61
2019-05-28T08:52:20.192Z,34.72
2019-05-28T08:54:52.272Z,34.84
2019-05-28T08:57:24.750Z,34.96
2019-05-28T08:59:56.619Z,34.95
2019-05-28T09:02:29.100Z,35.00
2019-05-28T09:05:01.165Z,35.21
2019-05-28T09:07:33.818Z,35.06
2019-05-28T09:10:07.820Z,35.17
2019-05-28T09:12:40.503Z,35.11
2019-05-28T09:15:12.511Z,35.24
2019-05-28T09:17:44.870Z,35.54
2019-05-28T09:20:17.174Z,35.51
2019-05-28T09:22:49.614Z,35.45
2019-05-28T09:25:21.989Z,35.43
2019-05-28T09:27:54.570Z,35.21
2019-05-28T09:30:26.440Z,35.01
2019-05-28T09:32:58.898Z,34.83
2019-05-28T09:35:44.107Z,34.59
2019-05-28T09:38:05.512Z,34.46
2019-05-28T09:40:49.215Z,34.68
2019-05-28T09:43:11.719Z,34.26
2019-05-28T09:45:43.972Z,34.21
2019-05-28T09:48:16.137Z,34.47
2019-05-28T09:50:48.199Z,34.54
2019-05-28T09:53:20.279Z,34.93
2019-05-28T09:55:52.647Z,35.36
2019-05-28T09:58:25.328Z,35.65
2019-05-28T10:00:59.070Z,35.33
2019-05-28T10:03:31.771Z,34.89
2019-05-28T10:06:16.385Z,34.48
2019-05-28T10:08:37.825Z,34.39
2019-05-28T10:11:09.967Z,34.72
2019-05-28T10:13:43.992Z,35.14
2019-05-28T10:16:16.051Z,35.67
2019-05-28T10:18:48.023Z,36.17
2019-05-28T10:21:20.392Z,36.12
2019-05-28T10:23:52.638Z,36.04
2019-05-28T10:26:25.000Z,36.25
2019-05-28T10:28:57.312Z,36.63
2019-05-28T10:31:29.585Z,36.85
2019-05-28T10:34:02.169Z,37.38
2019-05-28T10:36:37.254Z,37.53
2019-05-28T10:39:09.244Z,37.14
2019-05-28T10:41:41.145Z,36.62
2019-05-28T10:44:13.537Z,36.57
2019-05-28T10:46:46.508Z,36.56
2019-05-28T10:49:18.986Z,36.68
2019-05-28T10:51:51.363Z,37.31
2019-05-28T10:54:24.154Z,37.94
2019-05-28T10:56:56.429Z,38.65
2019-05-28T10:59:28.700Z,39.27
2019-05-28T11:02:00.664Z,39.16
2019-05-28T11:04:32.628Z,39.45
2019-05-28T11:07:04.906Z,40.07
2019-05-28T11:09:37.181Z,40.04
2019-05-28T11:12:09.763Z,39.62
2019-05-28T11:14:41.831Z,39.97
2019-05-28T11:17:14.003Z,40.55
2019-05-28T11:19:46.073Z,40.57
2019-05-28T11:22:18.343Z,40.93
2019-05-28T11:24:50.517Z,41.33
2019-05-28T11:27:24.101Z,40.84
2019-05-28T11:29:56.295Z,40.01
2019-05-28T11:32:28.156Z,39.42
2019-05-28T11:35:00.428Z,39.61
2019-05-28T11:37:32.396Z,40.50
2019-05-28T11:40:08.148Z,41.11
2019-05-28T11:42:40.527Z,41.75
2019-05-28T11:45:14.274Z,41.99
2019-05-28T11:47:45.989Z,42.45
2019-05-28T11:50:18.067Z,43.09
2019-05-28T11:52:50.601Z,43.21
2019-05-28T11:55:22.722Z,41.80
2019-05-28T11:57:54.890Z,40.89
2019-05-28T12:00:26.947Z,41.39
2019-05-28T12:02:58.812Z,42.34
2019-05-28T12:05:31.085Z,43.09
2019-05-28T12:08:03.257Z,44.05
2019-05-28T12:10:36.039Z,44.53
2019-05-28T12:13:10.906Z,43.87
2019-05-28T12:15:42.016Z,42.75
2019-05-28T12:18:13.995Z,42.22
2019-05-28T12:20:46.571Z,41.61
2019-05-28T12:23:18.643Z,40.85
2019-05-28T12:25:50.810Z,40.94
2019-05-28T12:28:37.156Z,40.94
2019-05-28T12:30:56.678Z,40.54
2019-05-28T12:33:28.752Z,40.32
2019-05-28T12:36:01.082Z,40.15
2019-05-28T12:38:33.400Z,39.49
2019-05-28T12:41:05.467Z,38.73
2019-05-28T12:43:37.739Z,38.73
2019-05-28T12:46:10.112Z,38.67
2019-05-28T12:48:42.384Z,39.00
2019-05-28T12:51:14.552Z,39.85
2019-05-28T12:53:50.840Z,41.14
2019-05-28T12:56:20.532Z,42.44
2019-05-28T12:58:52.719Z,42.21
2019-05-28T13:01:24.876Z,41.42
2019-05-28T13:03:56.841Z,42.15
2019-05-28T13:06:29.721Z,41.39
2019-05-28T13:09:01.822Z,40.39
2019-05-28T13:11:34.019Z,39.56
2019-05-28T13:14:06.212Z,40.55
2019-05-28T13:16:38.513Z,41.04
2019-05-28T13:19:10.789Z,40.61
2019-05-28T13:21:42.766Z,39.79
2019-05-28T13:24:14.820Z,39.02
2019-05-28T13:26:47.196Z,38.11
2019-05-28T13:29:19.571Z,37.48
2019-05-28T13:31:51.575Z,36.88
2019-05-28T13:34:23.539Z,36.70
2019-05-28T13:36:55.976Z,36.83
2019-05-28T13:39:28.158Z,37.75
2019-05-28T13:42:00.072Z,39.08
2019-05-28T13:44:32.183Z,40.36
2019-05-28T13:47:04.358Z,41.49
2019-05-28T13:49:36.620Z,42.18
2019-05-28T13:52:12.380Z,42.94
2019-05-28T13:54:43.438Z,43.42
2019-05-28T13:57:17.026Z,43.84
2019-05-28T13:59:49.225Z,43.75
2019-05-28T14:02:21.404Z,43.65
2019-05-28T14:04:53.585Z,43.99
2019-05-28T14:07:25.913Z,44.36
2019-05-28T14:09:57.949Z,44.69
2019-05-28T14:12:30.247Z,45.00
2019-05-28T14:15:02.069Z,45.10
2019-05-28T14:17:33.988Z,45.41
2019-05-28T14:20:06.637Z,44.83
2019-05-28T14:22:38.770Z,44.29
2019-05-28T14:25:10.898Z,44.47
2019-05-28T14:27:43.286Z,44.37
2019-05-28T14:30:16.713Z,44.30
2019-05-28T14:32:48.648Z,44.32
2019-05-28T14:35:20.725Z,44.17
2019-05-28T14:37:53.186Z,44.42
2019-05-28T14:40:25.285Z,43.98
2019-05-28T14:42:57.740Z,43.29
2019-05-28T14:45:29.810Z,42.53
2019-05-28T14:48:03.003Z,42.30
2019-05-28T14:50:35.485Z,41.91
2019-05-28T14:53:07.647Z,41.53
2019-05-28T14:55:39.816Z,41.48
2019-05-28T14:58:13.865Z,41.34
2019-05-28T15:00:45.416Z,41.69
2019-05-28T15:03:18.174Z,41.99
2019-05-28T15:05:50.243Z,42.32
2019-05-28T15:08:22.318Z,42.70
2019-05-28T15:10:54.791Z,43.05
2019-05-28T15:13:27.567Z,42.93
2019-05-28T15:15:59.838Z,42.61
2019-05-28T15:18:31.703Z,42.06
2019-05-28T15:21:03.772Z,41.81
2019-05-28T15:23:36.258Z,41.70
2019-05-28T15:26:08.622Z,41.38
2019-05-28T15:28:40.895Z,41.46
2019-05-28T15:31:13.170Z,41.51
2019-05-28T15:33:45.646Z,41.78
2019-05-28T15:36:17.818Z,41.70
2019-05-28T15:38:51.330Z,41.45
2019-05-28T15:41:23.593Z,41.45
2019-05-28T15:43:57.080Z,40.66
2019-05-28T15:46:29.180Z,39.01
2019-05-28T15:49:01.530Z,39.01
2019-05-28T15:51:33.905Z,39.05
2019-05-28T15:54:05.969Z,39.34
2019-05-28T15:56:38.552Z,39.49
2019-05-28T15:59:10.626Z,39.86
2019-05-28T16:01:43.710Z,40.28
2019-05-28T16:04:16.701Z,40.54
2019-05-28T16:06:48.561Z,40.01
2019-05-28T16:09:21.043Z,38.95
2019-05-28T16:11:53.313Z,38.03
2019-05-28T16:14:25.790Z,37.39
2019-05-28T16:16:57.854Z,37.06
2019-05-28T16:19:30.023Z,36.79
2019-05-28T16:22:02.479Z,36.32
2019-05-28T16:24:34.882Z,35.90
2019-05-28T16:27:07.765Z,35.49
2019-05-28T16:29:39.729Z,35.19
2019-05-28T16:32:11.803Z,34.92
2019-05-28T16:34:47.255Z,34.74
2019-05-28T16:37:19.221Z,34.36
2019-05-28T16:39:50.975Z,33.96
2019-05-28T16:42:23.044Z,33.69
2019-05-28T16:44:56.456Z,33.22
2019-05-28T16:47:28.614Z,32.87
2019-05-28T16:50:00.816Z,32.56
2019-05-28T16:52:33.264Z,32.28
2019-05-28T16:55:09.938Z,31.96
2019-05-28T16:57:42.120Z,31.61
2019-05-28T17:00:14.175Z,31.27
2019-05-28T17:02:46.346Z,31.01
2019-05-28T17:05:18.419Z,30.90
2019-05-28T17:07:50.698Z,30.74
2019-05-28T17:10:32.367Z,30.46
2019-05-28T17:12:56.837Z,30.21
2019-05-28T17:15:29.055Z,29.98
2019-05-28T17:18:01.632Z,29.73
2019-05-28T17:20:34.006Z,29.59
2019-05-28T17:23:06.075Z,29.41
2019-05-28T17:25:38.411Z,29.28
2019-05-28T17:28:10.726Z,29.12
2019-05-28T17:30:43.313Z,28.98
2019-05-28T17:33:15.883Z,28.86
2019-05-28T17:38:19.406Z,28.59
2019-05-28T17:40:51.794Z,28.46
2019-05-28T17:43:23.849Z,28.36
2019-05-28T17:45:56.229Z,28.28
2019-05-28T17:48:28.504Z,28.18
2019-05-28T17:51:00.979Z,28.18
2019-05-28T17:53:34.077Z,28.08
2019-05-28T17:56:08.062Z,27.98
2019-05-28T17:58:40.468Z,27.87
2019-05-28T18:01:12.631Z,27.74
2019-05-28T18:03:44.905Z,27.69
2019-05-28T18:06:17.385Z,27.61
2019-05-28T18:08:49.557Z,27.48
2019-05-28T18:11:21.623Z,27.46
2019-05-28T18:13:53.899Z,27.38
2019-05-28T18:16:26.353Z,27.25
2019-05-28T18:19:00.797Z,27.18
2019-05-28T18:21:32.575Z,27.11
2019-05-28T18:24:04.848Z,27.00
2019-05-28T18:26:38.450Z,26.95
2019-05-28T18:29:10.514Z,26.86
2019-05-28T18:31:42.278Z,26.75
2019-05-28T18:34:14.254Z,26.74
2019-05-28T18:36:46.076Z,26.66
2019-05-28T18:39:18.579Z,26.62
2019-05-28T18:41:51.742Z,26.56
2019-05-28T18:44:23.645Z,26.52
2019-05-28T18:46:55.815Z,26.37
2019-05-28T18:49:27.874Z,26.39
2019-05-28T18:52:00.086Z,26.30
2019-05-28T18:54:32.416Z,26.36
2019-05-28T18:57:04.609Z,26.25
2019-05-28T18:59:37.083Z,26.22
2019-05-28T19:02:09.496Z,26.16
2019-05-28T19:04:42.527Z,26.14
2019-05-28T19:07:14.720Z,26.19
2019-05-28T19:09:47.076Z,26.12
2019-05-28T19:12:19.243Z,26.07
2019-05-28T19:14:51.532Z,25.95
2019-05-28T19:17:23.583Z,25.94
2019-05-28T19:19:55.853Z,25.93
2019-05-28T19:22:28.123Z,25.86
2019-05-28T19:25:00.295Z,25.84
2019-05-28T19:27:35.595Z,25.83
2019-05-28T19:30:07.918Z,25.71
2019-05-28T19:32:39.876Z,25.81
2019-05-28T19:35:12.501Z,25.74
2019-05-28T19:37:44.516Z,25.70
2019-05-28T19:40:19.968Z,25.67
2019-05-28T19:42:52.492Z,25.63
2019-05-28T19:45:24.703Z,25.60
2019-05-28T19:47:57.571Z,25.58
2019-05-28T19:50:31.123Z,25.55
2019-05-28T19:53:04.599Z,25.43
2019-05-28T19:55:36.656Z,25.43
2019-05-28T19:58:08.616Z,25.45
2019-05-28T20:00:42.843Z,25.41
2019-05-28T20:03:17.527Z,25.35
2019-05-28T20:05:50.093Z,25.29
2019-05-28T20:08:22.315Z,25.28
2019-05-28T20:10:55.882Z,25.31
2019-05-28T20:13:27.850Z,25.29
2019-05-28T20:15:59.613Z,25.26
2019-05-28T20:18:31.571Z,25.24
2019-05-28T20:21:03.740Z,25.30
2019-05-28T20:23:35.802Z,25.25
2019-05-28T20:26:08.069Z,25.24
2019-05-28T20:28:40.340Z,25.26
2019-05-28T20:31:12.406Z,25.22
2019-05-28T20:33:44.906Z,25.20
2019-05-28T20:36:19.093Z,25.18
2019-05-28T20:38:51.058Z,25.13
2019-05-28T20:41:24.270Z,25.13
2019-05-28T20:43:57.148Z,25.09
2019-05-28T20:46:29.505Z,25.06
2019-05-28T20:49:02.524Z,25.10
2019-05-28T20:51:36.545Z,25.07
2019-05-28T20:54:10.888Z,25.06
2019-05-28T20:56:43.095Z,25.02
2019-05-28T20:59:15.198Z,24.92
2019-05-28T21:01:47.713Z,24.81
2019-05-28T21:04:19.867Z,24.68
2019-05-28T21:06:52.383Z,24.59
2019-05-28T21:09:24.350Z,24.47
2019-05-28T21:11:56.728Z,24.34
2019-05-28T21:14:29.025Z,24.23
2019-05-28T21:17:01.359Z,24.12
2019-05-28T21:19:33.628Z,24.02
2019-05-28T21:22:05.998Z,23.93
2019-05-28T21:24:40.046Z,23.84
2019-05-28T21:27:12.688Z,23.77
2019-05-28T21:29:47.230Z,23.69
2019-05-28T21:32:19.481Z,23.60
2019-05-28T21:34:54.956Z,23.54
2019-05-28T21:37:25.509Z,23.49
2019-05-28T21:39:57.629Z,23.43
2019-05-28T21:42:30.131Z,23.36
2019-05-28T21:45:03.540Z,23.30
2019-05-28T21:47:35.949Z,23.25
2019-05-28T21:50:08.966Z,23.18
2019-05-28T21:52:40.780Z,23.13
2019-05-28T21:55:14.516Z,23.09
2019-05-28T21:57:47.110Z,23.05
2019-05-28T22:00:30.739Z,23.00
2019-05-28T22:03:05.167Z,22.93
2019-05-28T22:05:37.228Z,22.88
2019-05-28T22:08:09.183Z,22.84
2019-05-28T22:10:41.468Z,22.81
2019-05-28T22:13:21.763Z,22.77
2019-05-28T22:15:47.343Z,22.71
2019-05-28T22:18:19.715Z,22.63
2019-05-28T22:20:51.992Z,22.54
2019-05-28T22:23:24.370Z,22.44
2019-05-28T22:25:56.414Z,22.37
2019-05-28T22:28:28.709Z,22.28
2019-05-28T22:31:01.768Z,22.18
2019-05-28T22:33:34.381Z,22.11
2019-05-28T22:36:07.511Z,22.05
2019-05-28T22:38:39.647Z,21.98
2019-05-28T22:41:11.756Z,21.89
2019-05-28T22:43:44.193Z,21.86
2019-05-28T22:46:16.057Z,21.84
2019-05-28T22:48:48.331Z,21.82
2019-05-28T22:51:20.608Z,21.81
2019-05-28T22:53:52.574Z,21.79
2019-05-28T22:56:24.943Z,21.74
2019-05-28T22:59:00.301Z,21.77
2019-05-28T23:01:32.264Z,21.75
2019-05-28T23:04:05.045Z,21.70
2019-05-28T23:06:37.214Z,21.66
2019-05-28T23:09:09.878Z,21.61
2019-05-28T23:11:42.374Z,21.57
2019-05-28T23:14:14.457Z,21.52
2019-05-28T23:16:46.816Z,21.51
2019-05-28T23:19:18.820Z,21.48
2019-05-28T23:21:50.581Z,21.45
2019-05-28T23:24:22.816Z,21.40
2019-05-28T23:26:55.597Z,21.37
2019-05-28T23:29:27.670Z,21.31
2019-05-28T23:31:59.841Z,21.27
2019-05-28T23:34:32.423Z,21.24
2019-05-28T23:37:05.971Z,21.18
2019-05-28T23:39:38.297Z,21.14
2019-05-28T23:42:11.565Z,21.12
2019-05-28T23:44:44.585Z,21.08
2019-05-28T23:47:17.266Z,21.05
2019-05-28T23:49:49.442Z,21.04
2019-05-28T23:52:21.813Z,21.01
2019-05-28T23:54:53.785Z,20.96
2019-05-28T23:57:25.849Z,20.94
2019-05-28T23:59:57.813Z,20.87
